Time;durP1;ratioP1;P1;durP2;ratioP2;P2;SDS_P1;SDS_P2;PMS_P1;PMS_P2;Temp;Humidity;BMP_temperature;BMP_pressure;BME280_temperature;BME280_humidity;BME280_pressure;Samples;Min_cycle;Max_cycle;Signal;HPM_P1;HPM_P2
2022/03/16 00:00:21;;;;;;;75.70;18.13;;;2.90;99.90;;;;;;4996843;28;20274;-61
2022/03/16 00:02:51;;;;;;;60.40;17.77;;;2.80;99.90;;;;;;4985274;28;20198;-61
2022/03/16 00:05:18;;;;;;;58.63;17.87;;;2.70;99.90;;;;;;4998764;28;20272;-64
2022/03/16 00:07:45;;;;;;;41.17;16.27;;;2.70;99.90;;;;;;4993617;28;20725;-63
2022/03/16 00:10:12;;;;;;;69.83;18.37;;;2.70;99.90;;;;;;4993264;28;20206;-63
2022/03/16 00:12:41;;;;;;;43.97;18.20;;;2.70;99.90;;;;;;4983978;28;20310;-61
2022/03/16 00:15:09;;;;;;;34.03;17.60;;;2.80;99.90;;;;;;4980632;28;20290;-61
2022/03/16 00:17:36;;;;;;;38.40;17.23;;;2.80;99.90;;;;;;4999585;28;20293;-62
2022/03/16 00:20:06;;;;;;;25.70;17.00;;;2.80;99.90;;;;;;4982766;28;20580;-61
2022/03/16 00:22:33;;;;;;;63.23;28.80;;;2.80;99.90;;;;;;4997274;28;20271;-63
2022/03/16 00:25:05;;;;;;;136.77;69.97;;;2.80;99.90;;;;;;4980195;28;20226;-64
2022/03/16 00:27:35;;;;;;;55.57;32.73;;;2.80;99.90;;;;;;4999152;28;20329;-62
2022/03/16 00:30:04;;;;;;;44.33;25.70;;;2.80;99.90;;;;;;4996127;28;20195;-62
2022/03/16 00:32:31;;;;;;;50.00;23.33;;;2.80;99.90;;;;;;4983389;28;20202;-61
2022/03/16 00:35:05;;;;;;;39.93;22.57;;;2.70;99.90;;;;;;4978399;28;20201;-62
2022/03/16 00:37:32;;;;;;;37.90;20.83;;;2.60;99.90;;;;;;4997418;28;20306;-61
2022/03/16 00:40:00;;;;;;;46.63;21.10;;;2.60;99.90;;;;;;4999285;28;20727;-61
2022/03/16 00:42:31;;;;;;;41.73;19.77;;;2.60;99.90;;;;;;4982222;28;20304;-61
2022/03/16 00:44:58;;;;;;;43.43;21.00;;;2.60;99.90;;;;;;4987848;28;20198;-62
2022/03/16 00:47:26;;;;;;;45.07;21.97;;;2.60;99.90;;;;;;4986637;28;20206;-62
2022/03/16 00:49:56;;;;;;;33.57;19.23;;;2.50;99.90;;;;;;4988443;28;20192;-62
2022/03/16 00:52:23;;;;;;;21.07;15.73;;;2.50;99.90;;;;;;4980986;28;20202;-62
2022/03/16 00:54:52;;;;;;;21.23;15.50;;;2.40;99.90;;;;;;4996025;28;20218;-61
2022/03/16 00:57:19;;;;;;;20.63;14.63;;;2.40;99.90;;;;;;4964339;28;20225;-61
2022/03/16 00:59:46;;;;;;;19.77;14.00;;;2.40;99.90;;;;;;4977298;28;20193;-61
2022/03/16 01:02:13;;;;;;;19.17;14.70;;;2.40;99.90;;;;;;4981066;28;20270;-62
2022/03/16 01:04:42;;;;;;;20.00;14.77;;;2.30;99.90;;;;;;4997116;28;20206;-62
2022/03/16 01:07:11;;;;;;;20.30;15.70;;;2.40;99.90;;;;;;4988277;28;20206;-62
2022/03/16 01:09:40;;;;;;;20.13;15.53;;;2.40;99.90;;;;;;4997412;28;20213;-62
2022/03/16 01:12:07;;;;;;;21.40;16.57;;;2.40;99.90;;;;;;4982498;28;20209;-62
2022/03/16 01:14:35;;;;;;;25.90;19.17;;;2.40;99.90;;;;;;4993905;28;20217;-64
2022/03/16 01:17:02;;;;;;;29.23;19.87;;;2.40;99.90;;;;;;4981986;28;20729;-63
2022/03/16 01:19:31;;;;;;;26.63;18.03;;;2.30;99.90;;;;;;4980462;28;20305;-62
2022/03/16 01:22:00;;;;;;;26.40;19.10;;;2.30;99.90;;;;;;4981953;28;20204;-62
2022/03/16 01:24:30;;;;;;;23.17;17.83;;;2.30;99.90;;;;;;4998510;28;20719;-64
2022/03/16 01:27:01;;;;;;;25.57;18.37;;;2.20;99.90;;;;;;4981120;28;20202;-63
2022/03/16 01:29:31;;;;;;;23.07;17.93;;;2.20;99.90;;;;;;4981753;28;20655;-63
2022/03/16 01:31:58;;;;;;;23.33;18.40;;;2.20;99.90;;;;;;4982926;28;20299;-63
2022/03/16 01:34:28;;;;;;;23.57;19.63;;;2.20;99.90;;;;;;4994651;28;20220;-63
2022/03/16 01:36:56;;;;;;;24.30;19.57;;;2.10;99.90;;;;;;4991189;28;20295;-63
2022/03/16 01:39:22;;;;;;;29.30;20.80;;;2.10;99.90;;;;;;4995948;28;20241;-62
2022/03/16 01:41:50;;;;;;;31.07;22.20;;;2.10;99.90;;;;;;4988419;28;20241;-62
2022/03/16 01:44:17;;;;;;;27.83;20.53;;;2.00;99.90;;;;;;5002673;28;20205;-63
2022/03/16 01:46:46;;;;;;;26.17;20.23;;;2.10;99.90;;;;;;4993418;28;20232;-63
2022/03/16 01:49:15;;;;;;;24.87;19.73;;;2.00;99.90;;;;;;4994474;28;20237;-62
2022/03/16 01:51:45;;;;;;;25.10;19.03;;;1.90;99.90;;;;;;5004181;28;20839;-62
2022/03/16 01:54:14;;;;;;;23.63;18.50;;;1.90;99.90;;;;;;5003418;28;20210;-63
2022/03/16 01:56:41;;;;;;;25.10;19.43;;;1.80;99.90;;;;;;5002495;28;20237;-62
2022/03/16 01:59:12;;;;;;;26.43;20.77;;;1.80;99.90;;;;;;4994256;28;20199;-62
2022/03/16 02:01:42;;;;;;;28.40;20.00;;;1.90;99.90;;;;;;5003502;28;20212;-63
2022/03/16 02:04:09;;;;;;;24.13;19.73;;;1.90;99.90;;;;;;5003732;28;20225;-63
2022/03/16 02:06:36;;;;;;;25.57;20.13;;;1.80;99.90;;;;;;4986770;28;20288;-63
2022/03/16 02:09:03;;;;;;;27.93;20.20;;;1.80;99.90;;;;;;4978139;28;20208;-63
2022/03/16 02:11:32;;;;;;;20.67;17.90;;;1.70;99.90;;;;;;5004447;28;20279;-62
2022/03/16 02:14:02;;;;;;;23.40;18.33;;;1.70;99.90;;;;;;4986108;28;20240;-62
2022/03/16 02:16:34;;;;;;;21.10;17.57;;;1.70;99.90;;;;;;5000559;28;20313;-62
2022/03/16 02:19:01;;;;;;;20.90;16.83;;;1.60;99.90;;;;;;4986245;28;20202;-63
2022/03/16 02:21:31;;;;;;;21.87;18.17;;;1.60;99.90;;;;;;4994706;28;20225;-63
2022/03/16 02:24:03;;;;;;;21.37;17.00;;;1.60;99.90;;;;;;4993821;28;20305;-63
2022/03/16 02:26:30;;;;;;;20.50;18.07;;;1.60;99.90;;;;;;4999874;28;20303;-62
2022/03/16 02:28:57;;;;;;;21.93;18.00;;;1.60;99.90;;;;;;4986554;28;20225;-62
2022/03/16 02:31:25;;;;;;;22.40;17.93;;;1.60;99.90;;;;;;4988255;28;20293;-63
2022/03/16 02:33:55;;;;;;;20.33;16.20;;;1.60;99.90;;;;;;4993910;28;20236;-62
2022/03/16 02:36:22;;;;;;;19.67;16.77;;;1.60;99.90;;;;;;4994730;28;20276;-63
2022/03/16 02:38:49;;;;;;;21.50;17.47;;;1.60;99.90;;;;;;4988201;28;20234;-64
2022/03/16 02:41:16;;;;;;;19.63;16.27;;;1.60;99.90;;;;;;4976389;28;20233;-63
2022/03/16 02:43:45;;;;;;;32.13;19.73;;;1.60;99.90;;;;;;4988030;28;20194;-64
2022/03/16 02:46:14;;;;;;;19.27;16.30;;;1.50;99.90;;;;;;4999209;28;20217;-64
2022/03/16 02:48:41;;;;;;;21.50;17.47;;;1.50;99.90;;;;;;4982755;28;20209;-63
2022/03/16 02:51:07;;;;;;;19.67;16.10;;;1.50;99.90;;;;;;4989896;28;20641;-63
2022/03/16 02:53:36;;;;;;;19.33;16.03;;;1.40;59.60;;;;;;4990433;28;20198;-63
2022/03/16 02:56:06;;;;;;;18.37;15.70;;;1.40;1.00;;;;;;4984375;28;20278;-63
2022/03/16 02:58:33;;;;;;;22.63;16.80;;;1.40;1.00;;;;;;4972494;28;20652;-63
2022/03/16 03:01:00;;;;;;;20.03;15.93;;;1.40;1.00;;;;;;4984045;28;20748;-63
2022/03/16 03:03:27;;;;;;;18.50;15.07;;;1.40;1.00;;;;;;4989416;28;20210;-62
2022/03/16 03:05:54;;;;;;;20.73;14.20;;;1.40;1.00;;;;;;4990697;28;20620;-63
2022/03/16 03:08:21;;;;;;;18.37;15.33;;;1.40;1.00;;;;;;4984553;28;20604;-63
2022/03/16 03:10:49;;;;;;;18.43;15.03;;;1.40;1.00;;;;;;4984122;28;20208;-61
2022/03/16 03:13:18;;;;;;;19.07;14.83;;;1.30;1.00;;;;;;4987903;28;20218;-63
2022/03/16 03:15:50;;;;;;;18.20;14.60;;;1.30;1.00;;;;;;4989713;28;20206;-63
2022/03/16 03:18:18;;;;;;;17.60;15.33;;;1.30;1.00;;;;;;4999720;28;20195;-63
2022/03/16 03:20:47;;;;;;;20.13;16.37;;;1.30;1.00;;;;;;4983874;28;20210;-63
2022/03/16 03:23:13;;;;;;;17.43;14.67;;;1.30;99.90;;;;;;4989694;28;20275;-63
2022/03/16 03:25:40;;;;;;;19.47;15.70;;;1.30;99.90;;;;;;5000473;28;20233;-63
2022/03/16 03:28:10;;;;;;;17.83;15.37;;;1.40;99.90;;;;;;4997907;28;20194;-62
2022/03/16 03:30:37;;;;;;;18.37;15.77;;;1.30;99.90;;;;;;4990279;28;20249;-63
2022/03/16 03:33:04;;;;;;;22.23;16.17;;;1.30;99.90;;;;;;4971869;28;20593;-62
2022/03/16 03:35:31;;;;;;;19.63;16.10;;;1.30;99.90;;;;;;4985229;28;20208;-63
2022/03/16 03:38:00;;;;;;;17.77;15.57;;;1.40;99.90;;;;;;5000288;28;20222;-63
2022/03/16 03:40:27;;;;;;;16.83;14.83;;;1.30;99.90;;;;;;4988534;28;20198;-62
2022/03/16 03:42:54;;;;;;;17.83;14.93;;;1.30;99.90;;;;;;4981630;28;20280;-62
2022/03/16 03:45:21;;;;;;;21.50;17.70;;;1.30;99.90;;;;;;4984607;28;21000;-63
2022/03/16 03:47:48;;;;;;;20.07;16.43;;;1.30;99.90;;;;;;4988126;28;20233;-63
2022/03/16 03:50:16;;;;;;;16.93;14.77;;;1.20;34.50;;;;;;4988708;28;20205;-63
2022/03/16 03:52:43;;;;;;;17.17;14.47;;;1.10;1.00;;;;;;4973444;28;20269;-63
2022/03/16 03:55:17;;;;;;;17.63;14.70;;;1.10;1.00;;;;;;4973806;28;20206;-63
2022/03/16 03:57:48;;;;;;;18.80;14.03;;;1.10;1.00;;;;;;4970934;28;20372;-63
2022/03/16 04:00:15;;;;;;;18.73;14.90;;;1.10;48.50;;;;;;4982286;28;20264;-63
2022/03/16 04:02:47;;;;;;;17.30;14.63;;;1.10;15.00;;;;;;4983465;28;20277;-63
2022/03/16 04:05:19;;;;;;;20.30;15.07;;;1.10;23.30;;;;;;4999139;28;20205;-63
2022/03/16 04:07:50;;;;;;;17.20;14.73;;;1.10;65.20;;;;;;4983743;28;20228;-63
2022/03/16 04:10:17;;;;;;;20.60;14.70;;;1.10;35.80;;;;;;4988645;28;20260;-63
2022/03/16 04:12:44;;;;;;;17.03;14.57;;;1.10;99.90;;;;;;4996953;28;21001;-62
2022/03/16 04:15:14;;;;;;;17.17;14.20;;;1.10;97.20;;;;;;4981888;28;20668;-63
2022/03/16 04:17:41;;;;;;;17.73;14.90;;;1.10;55.00;;;;;;4987376;28;20221;-63
2022/03/16 04:20:08;;;;;;;16.90;14.03;;;1.10;57.10;;;;;;4997662;28;20664;-63
2022/03/16 04:22:37;;;;;;;18.90;14.77;;;1.10;38.50;;;;;;4997540;28;20301;-62
2022/03/16 04:25:05;;;;;;;18.63;14.43;;;1.00;24.10;;;;;;4998851;28;20685;-63
2022/03/16 04:27:32;;;;;;;18.97;14.80;;;1.10;99.90;;;;;;4997277;28;20275;-63
2022/03/16 04:29:59;;;;;;;16.57;14.10;;;1.10;99.90;;;;;;4971980;28;20272;-63
2022/03/16 04:32:26;;;;;;;21.07;15.83;;;1.10;99.90;;;;;;4980188;28;20237;-63
2022/03/16 04:34:53;;;;;;;20.37;15.43;;;1.20;93.50;;;;;;4987206;28;20271;-63
2022/03/16 04:37:22;;;;;;;19.33;15.20;;;1.20;81.20;;;;;;4996075;28;20234;-63
2022/03/16 04:39:51;;;;;;;18.93;15.17;;;1.40;99.90;;;;;;4996802;28;20297;-63
2022/03/16 04:42:18;;;;;;;18.40;14.27;;;1.40;99.90;;;;;;4980632;28;20249;-63
2022/03/16 04:44:45;;;;;;;19.60;14.87;;;1.30;99.90;;;;;;4981567;28;20766;-63
2022/03/16 04:47:12;;;;;;;21.40;15.87;;;1.30;99.90;;;;;;4986458;28;20241;-63
2022/03/16 04:49:39;;;;;;;23.57;16.30;;;1.30;99.90;;;;;;4995534;28;20221;-63
2022/03/16 04:52:06;;;;;;;27.23;15.70;;;1.30;99.90;;;;;;4995086;28;20523;-63
2022/03/16 04:54:33;;;;;;;22.83;15.80;;;1.30;99.90;;;;;;4995363;28;20212;-63
2022/03/16 04:57:00;;;;;;;21.63;16.07;;;1.40;99.90;;;;;;4995923;28;20217;-64
2022/03/16 04:59:27;;;;;;;22.57;15.27;;;1.40;99.90;;;;;;4996524;28;20209;-63
2022/03/16 05:01:55;;;;;;;22.63;15.67;;;1.40;99.90;;;;;;4985757;28;20205;-63
2022/03/16 05:04:22;;;;;;;19.10;14.73;;;1.50;99.90;;;;;;4987511;28;20300;-63
2022/03/16 05:06:49;;;;;;;19.00;14.53;;;1.50;99.90;;;;;;4986499;28;20221;-63
2022/03/16 05:09:18;;;;;;;20.80;15.53;;;1.40;99.90;;;;;;4981583;28;20205;-63
2022/03/16 05:11:47;;;;;;;20.57;15.57;;;1.50;99.90;;;;;;4996566;28;20205;-63
2022/03/16 05:14:14;;;;;;;18.53;15.07;;;1.50;99.90;;;;;;4980746;28;20293;-63
2022/03/16 05:16:41;;;;;;;22.47;16.37;;;1.40;99.90;;;;;;4997942;28;20300;-63
2022/03/16 05:19:08;;;;;;;23.47;15.47;;;1.20;99.90;;;;;;4981923;28;20202;-62
2022/03/16 05:21:35;;;;;;;26.33;17.20;;;1.20;99.90;;;;;;4983065;28;20683;-62
2022/03/16 05:24:02;;;;;;;26.77;17.50;;;1.30;99.90;;;;;;5002434;28;20254;-63
2022/03/16 05:26:29;;;;;;;22.90;17.10;;;1.40;99.90;;;;;;4972066;28;20213;-63
2022/03/16 05:29:01;;;;;;;22.43;14.80;;;1.20;99.90;;;;;;4998474;28;20210;-63
2022/03/16 05:31:28;;;;;;;25.87;16.17;;;1.20;99.90;;;;;;4996347;28;20216;-63
2022/03/16 05:33:55;;;;;;;20.87;14.67;;;1.10;99.90;;;;;;4986083;28;20566;-62
2022/03/16 05:36:24;;;;;;;22.33;15.73;;;1.10;99.90;;;;;;4997433;28;20943;-62
2022/03/16 05:38:51;;;;;;;23.83;16.43;;;1.20;99.90;;;;;;4986655;28;20197;-62
2022/03/16 05:41:18;;;;;;;24.00;16.83;;;1.30;99.90;;;;;;4979074;28;20291;-62
2022/03/16 05:43:45;;;;;;;22.00;16.97;;;1.20;99.90;;;;;;4993178;28;20197;-63
2022/03/16 05:46:12;;;;;;;24.63;16.63;;;1.20;99.90;;;;;;4986253;28;20626;-63
2022/03/16 05:48:39;;;;;;;20.97;16.33;;;1.20;99.90;;;;;;4968115;28;20535;-63
2022/03/16 05:51:06;;;;;;;22.00;15.27;;;1.30;99.90;;;;;;4984182;28;20185;-63
2022/03/16 05:53:32;;;;;;;23.23;16.40;;;1.40;99.90;;;;;;4983121;28;20304;-63
2022/03/16 05:55:59;;;;;;;24.90;16.90;;;1.40;99.90;;;;;;4979998;28;20252;-62
2022/03/16 05:58:29;;;;;;;25.57;17.20;;;1.50;99.90;;;;;;4994978;28;20305;-62
2022/03/16 06:00:58;;;;;;;25.73;16.67;;;1.60;99.90;;;;;;4979862;28;20236;-62
2022/03/16 06:03:25;;;;;;;30.83;16.83;;;1.70;99.90;;;;;;4978099;28;20212;-63
2022/03/16 06:05:52;;;;;;;27.63;17.67;;;1.90;99.90;;;;;;4981331;28;20199;-62
2022/03/16 06:08:19;;;;;;;26.00;17.70;;;2.10;99.90;;;;;;4994488;28;20328;-63
2022/03/16 06:10:46;;;;;;;26.83;19.67;;;2.70;99.90;;;;;;4980219;28;20289;-62
2022/03/16 06:13:13;;;;;;;27.30;20.43;;;3.40;2.80;;;;;;4984767;28;20550;-62
2022/03/16 06:15:44;;;;;;;32.23;19.80;;;4.20;99.90;;;;;;4986660;28;20205;-61
2022/03/16 06:18:12;;;;;;;25.63;17.67;;;4.30;1.00;;;;;;4988093;28;20209;-61
2022/03/16 06:20:42;;;;;;;21.30;14.00;;;4.70;33.60;;;;;;4985090;28;20198;-62
2022/03/16 06:23:09;;;;;;;18.70;11.50;;;4.90;1.00;;;;;;4988984;28;20252;-61
2022/03/16 06:25:39;;;;;;;11.03;9.57;;;5.10;1.00;;;;;;4998991;28;20201;-61
2022/03/16 06:28:06;;;;;;;10.40;8.87;;;6.30;99.90;;;;;;4985151;28;20735;-62
2022/03/16 06:30:33;;;;;;;12.40;8.73;;;7.50;24.40;;;;;;4991575;28;20212;-62
2022/03/16 06:33:00;;;;;;;12.07;7.53;;;8.20;97.90;;;;;;4990119;28;20214;-62
2022/03/16 06:35:27;;;;;;;9.57;6.50;;;7.80;1.00;;;;;;4990913;28;20304;-62
2022/03/16 06:37:58;;;;;;;8.10;7.30;;;7.70;99.90;;;;;;4991178;28;20210;-62
2022/03/16 06:40:28;;;;;;;9.43;7.07;;;7.10;1.00;;;;;;4989167;28;20401;-62
2022/03/16 06:42:57;;;;;;;10.00;7.67;;;6.20;1.00;;;;;;4998105;28;20237;-62
2022/03/16 06:45:27;;;;;;;10.93;7.70;;;5.90;99.90;;;;;;4983254;28;20238;-62
2022/03/16 06:47:58;;;;;;;9.17;6.67;;;6.70;1.00;;;;;;4998411;28;20204;-62
2022/03/16 06:50:26;;;;;;;10.17;7.33;;;6.30;1.00;;;;;;4999001;28;20645;-62
2022/03/16 06:52:54;;;;;;;9.73;7.17;;;6.80;1.00;;;;;;4996566;28;20298;-62
2022/03/16 06:55:22;;;;;;;12.00;7.20;;;7.50;1.00;;;;;;4983674;28;20226;-63
2022/03/16 06:57:49;;;;;;;11.67;7.60;;;7.60;1.00;;;;;;4988979;28;20728;-62
2022/03/16 07:00:19;;;;;;;8.13;7.27;;;8.00;1.00;;;;;;4987551;28;20190;-62
2022/03/16 07:02:51;;;;;;;10.23;7.43;;;7.70;99.90;;;;;;4996124;28;20194;-62
2022/03/16 07:05:18;;;;;;;10.33;7.70;;;7.20;1.00;;;;;;4982461;28;20194;-63
2022/03/16 07:07:51;;;;;;;9.77;7.50;;;6.80;1.00;;;;;;4982578;28;20209;-63
2022/03/16 07:10:20;;;;;;;9.63;8.10;;;6.80;1.00;;;;;;4982181;28;20225;-62
2022/03/16 07:12:47;;;;;;;7.90;7.10;;;7.90;1.00;;;;;;4983094;28;20605;-62
2022/03/16 07:15:15;;;;;;;8.07;7.13;;;8.60;99.90;;;;;;4999795;28;20333;-62
2022/03/16 07:17:42;;;;;;;8.37;6.87;;;9.10;63.60;;;;;;4988617;28;20541;-63
2022/03/16 07:20:09;;;;;;;9.47;7.27;;;9.30;50.60;;;;;;4989572;28;20261;-62
2022/03/16 07:22:37;;;;;;;7.97;6.83;;;10.10;1.00;;;;;;4984719;28;20288;-63
2022/03/16 07:25:20;;;;;;;8.23;6.13;;;11.00;1.00;;;;;;4998580;28;20421;-62
2022/03/16 07:27:49;;;;;;;8.40;6.77;;;11.90;99.90;;;;;;4985029;28;20225;-62
2022/03/16 07:30:17;;;;;;;8.33;6.73;;;13.60;63.70;;;;;;4994750;28;20201;-63
2022/03/16 07:32:46;;;;;;;7.60;6.80;;;15.30;1.00;;;;;;4987062;28;20190;-62
2022/03/16 07:35:13;;;;;;;6.90;5.85;;;15.50;1.00;;;;;;4981689;28;20208;-62
2022/03/16 07:37:42;;;;;;;8.07;6.28;;;16.70;1.00;;;;;;4982131;28;20304;-62
2022/03/16 07:40:10;;;;;;;7.75;6.75;;;18.10;1.00;;;;;;4997506;28;20233;-63
2022/03/16 07:42:37;;;;;;;8.27;6.53;;;17.80;1.00;;;;;;4987987;28;20240;-63
2022/03/16 07:45:05;;;;;;;7.65;6.63;;;17.90;1.00;;;;;;4973099;28;20289;-63
2022/03/16 07:47:37;;;;;;;12.10;6.72;;;18.60;1.00;;;;;;4988674;28;20209;-63
2022/03/16 07:50:07;;;;;;;10.70;7.00;;;18.70;1.00;;;;;;4981758;28;20198;-62
2022/03/16 07:52:34;;;;;;;8.18;6.57;;;16.50;1.00;;;;;;4981744;28;20191;-62
2022/03/16 07:55:02;;;;;;;9.98;6.97;;;17.10;1.00;;;;;;4983610;28;20629;-63
2022/03/16 07:57:29;;;;;;;7.20;6.50;;;18.40;1.00;;;;;;4981713;28;20454;-63
2022/03/16 07:59:58;;;;;;;9.80;7.75;;;16.00;1.00;;;;;;4982434;28;20202;-62
2022/03/16 08:02:29;;;;;;;10.90;7.45;;;15.90;1.00;;;;;;4981360;28;20202;-61
2022/03/16 08:04:58;;;;;;;7.28;6.57;;;15.60;1.00;;;;;;4998315;28;20760;-62
2022/03/16 08:07:27;;;;;;;9.02;7.03;;;16.00;1.00;;;;;;4997594;28;20240;-61
2022/03/16 08:09:57;;;;;;;10.35;7.40;;;14.80;1.00;;;;;;4997380;28;20205;-65
2022/03/16 08:12:24;;;;;;;7.53;6.82;;;15.90;1.00;;;;;;4986446;28;20296;-62
2022/03/16 08:14:51;;;;;;;11.70;7.57;;;19.10;1.00;;;;;;4997583;28;20233;-63
2022/03/16 08:17:21;;;;;;;9.52;7.65;;;21.40;1.00;;;;;;4971571;28;20360;-63
2022/03/16 08:19:51;;;;;;;12.82;8.65;;;22.10;1.00;;;;;;4983277;28;20197;-62
2022/03/16 08:22:32;;;;;;;11.15;9.10;;;22.00;1.00;;;;;;4996451;28;20222;-62
2022/03/16 08:25:03;;;;;;;14.00;10.57;;;20.90;1.00;;;;;;4970121;28;20202;-62
2022/03/16 08:27:31;;;;;;;12.32;9.80;;;20.40;1.00;;;;;;4981531;28;20197;-62
2022/03/16 08:29:58;;;;;;;14.70;9.75;;;20.70;1.00;;;;;;4996962;28;20736;-62
2022/03/16 08:32:25;;;;;;;14.60;10.35;;;21.40;1.00;;;;;;4986580;28;20237;-62
2022/03/16 08:34:52;;;;;;;13.13;10.35;;;18.90;1.00;;;;;;4997896;28;20202;-62
2022/03/16 08:37:20;;;;;;;15.02;11.25;;;16.60;1.00;;;;;;4965109;28;20669;-62
2022/03/16 08:39:48;;;;;;;15.73;11.43;;;14.20;1.00;;;;;;4991773;28;20186;-63
2022/03/16 08:42:16;;;;;;;17.42;12.50;;;12.90;50.90;;;;;;4978636;28;20285;-61
2022/03/16 08:44:45;;;;;;;17.83;13.18;;;12.00;99.90;;;;;;4979271;28;20682;-61
2022/03/16 08:47:18;;;;;;;17.60;12.87;;;11.80;1.00;;;;;;4979128;28;20186;-62
2022/03/16 08:49:45;;;;;;;17.60;12.93;;;11.30;1.00;;;;;;4979987;28;20245;-63
2022/03/16 08:52:13;;;;;;;19.13;13.60;;;11.50;1.00;;;;;;4982947;28;20452;-62
2022/03/16 08:54:41;;;;;;;21.20;13.37;;;11.60;1.00;;;;;;4980073;28;20225;-62
2022/03/16 08:57:14;;;;;;;17.87;12.80;;;12.10;1.00;;;;;;4993850;28;20232;-62
2022/03/16 08:59:43;;;;;;;17.73;12.63;;;12.20;1.00;;;;;;4991906;28;20241;-61
2022/03/16 09:02:10;;;;;;;15.67;12.00;;;13.40;99.90;;;;;;4980959;28;20265;-62
2022/03/16 09:04:37;;;;;;;15.05;12.38;;;18.50;1.00;;;;;;4982753;28;20190;-62
2022/03/16 09:07:04;;;;;;;17.38;11.93;;;20.70;1.00;;;;;;4981272;28;20201;-62
2022/03/16 09:09:37;;;;;;;15.90;11.68;;;23.00;99.90;;;;;;4982766;28;20190;-62
2022/03/16 09:12:04;;;;;;;14.82;12.45;;;24.60;99.90;;;;;;4977711;28;20194;-62
2022/03/16 09:14:31;;;;;;;16.65;12.75;;;23.10;99.90;;;;;;4982503;28;20677;-62
2022/03/16 09:16:59;;;;;;;15.85;13.10;;;22.80;99.90;;;;;;4977568;28;20206;-62
2022/03/16 09:19:30;;;;;;;15.98;11.77;;;22.90;99.90;;;;;;4979082;28;20275;-62
2022/03/16 09:22:00;;;;;;;17.63;12.43;;;23.50;99.90;;;;;;4968637;28;20653;-62
2022/03/16 09:24:30;;;;;;;15.27;12.48;;;24.90;99.90;;;;;;4977928;28;20263;-61
2022/03/16 09:26:59;;;;;;;14.93;11.90;;;24.40;99.90;;;;;;4967997;28;20197;-63
2022/03/16 09:29:28;;;;;;;15.73;12.88;;;23.50;99.90;;;;;;4975767;28;20205;-63
2022/03/16 09:31:59;;;;;;;16.75;13.07;;;24.50;99.90;;;;;;4978645;28;20789;-62
2022/03/16 09:34:27;;;;;;;15.02;12.77;;;23.90;99.90;;;;;;4963158;28;20204;-62
2022/03/16 09:36:54;;;;;;;15.73;13.07;;;24.30;99.90;;;;;;4980053;28;20241;-63
2022/03/16 09:39:24;;;;;;;17.75;14.18;;;23.40;99.90;;;;;;4984412;28;20213;-63
2022/03/16 09:41:51;;;;;;;16.70;13.20;;;22.50;99.90;;;;;;4981138;28;20298;-62
2022/03/16 09:44:23;;;;;;;17.52;13.32;;;22.90;99.90;;;;;;4977543;28;20205;-63
2022/03/16 09:46:54;;;;;;;17.25;13.40;;;22.50;99.90;;;;;;4976329;28;20202;-63
2022/03/16 09:49:22;;;;;;;18.75;13.82;;;23.20;99.90;;;;;;4976257;28;20220;-62
2022/03/16 09:51:51;;;;;;;15.43;12.45;;;24.10;99.90;;;;;;4982978;28;20226;-63
2022/03/16 09:54:18;;;;;;;22.38;14.20;;;22.80;99.90;;;;;;4983303;28;20213;-63
2022/03/16 09:56:45;;;;;;;20.02;14.65;;;21.20;99.90;;;;;;4980898;28;20236;-63
2022/03/16 09:59:15;;;;;;;18.30;14.13;;;21.10;99.90;;;;;;4981109;28;20259;-62
2022/03/16 10:01:45;;;;;;;19.05;13.95;;;22.20;99.90;;;;;;4986120;28;20229;-63
2022/03/16 10:04:13;;;;;;;16.05;12.85;;;25.00;99.90;;;;;;4981829;28;20198;-63
2022/03/16 10:06:43;;;;;;;15.95;12.80;;;25.40;99.90;;;;;;4985067;28;20214;-62
2022/03/16 10:15:23;;;;;;;18.42;13.38;;;25.40;99.90;;;;;;4979974;28;20795;-63
2022/03/16 10:18:01;;;;;;;16.65;12.32;;;25.70;99.90;;;;;;4978935;28;20226;-63
2022/03/16 10:20:39;;;;;;;17.33;13.20;;;26.70;99.90;;;;;;4983824;28;20212;-63
2022/03/16 10:23:12;;;;;;;16.50;12.75;;;25.90;99.90;;;;;;4985102;28;20236;-63
2022/03/16 10:25:40;;;;;;;14.90;12.70;;;26.30;99.90;;;;;;4981451;28;20202;-62
2022/03/16 10:28:13;;;;;;;18.35;13.00;;;22.80;99.90;;;;;;4985460;28;20236;-62
2022/03/16 10:31:02;;;;;;;16.02;12.82;;;21.30;99.90;;;;;;4986466;28;20682;-62
2022/03/16 10:33:33;;;;;;;14.45;12.35;;;21.40;99.90;;;;;;4967839;28;20205;-62
2022/03/16 10:36:12;;;;;;;16.42;13.30;;;20.50;99.90;;;;;;4985429;28;20264;-63
2022/03/16 10:38:44;;;;;;;13.93;12.43;;;20.30;99.90;;;;;;4978932;28;20209;-62
2022/03/16 10:47:03;;;;;;;16.67;12.60;;;18.90;99.90;;;;;;4980952;28;20197;-62
2022/03/16 10:49:34;;;;;;;13.00;10.93;;;18.60;99.90;;;;;;4995811;28;20547;-62
2022/03/16 10:52:05;;;;;;;14.05;10.60;;;18.30;99.90;;;;;;4981453;28;20206;-62
2022/03/16 10:54:33;;;;;;;13.98;11.00;;;17.70;99.90;;;;;;4997491;28;20205;-63
2022/03/16 10:57:03;;;;;;;11.77;10.55;;;17.70;99.90;;;;;;4982918;28;20631;-62
2022/03/16 10:59:33;;;;;;;15.98;11.95;;;18.10;99.90;;;;;;5013751;28;21620;-63
2022/03/16 11:02:14;;;;;;;16.33;11.88;;;18.40;1.00;;;;;;4981457;28;20222;-62
2022/03/16 11:04:44;;;;;;;15.40;12.50;;;19.20;99.90;;;;;;4996825;28;20597;-63
2022/03/16 11:07:11;;;;;;;17.35;12.20;;;19.90;99.90;;;;;;5000449;28;20197;-63
2022/03/16 11:09:39;;;;;;;15.55;11.57;;;21.30;99.90;;;;;;4975191;28;20235;-63
2022/03/16 11:14:58;;;;;;;13.15;11.23;;;21.60;99.90;;;;;;4980995;28;20252;-62
2022/03/16 11:17:29;;;;;;;13.77;12.10;;;21.50;99.90;;;;;;4979975;28;20279;-62
2022/03/16 11:19:59;;;;;;;13.30;11.38;;;21.70;99.90;;;;;;4994549;28;20241;-62
2022/03/16 11:25:55;;;;;;;13.20;11.90;;;21.80;99.90;;;;;;4983877;28;20670;-62
2022/03/16 11:29:05;;;;;;;14.75;11.43;;;20.50;99.90;;;;;;4978900;28;20198;-62
2022/03/16 11:31:34;;;;;;;12.98;11.30;;;21.70;99.90;;;;;;4979341;28;20217;-62
2022/03/16 11:34:08;;;;;;;12.35;11.07;;;20.90;99.90;;;;;;4992493;28;20202;-61
2022/03/16 11:36:40;;;;;;;12.05;10.73;;;20.20;99.90;;;;;;5008675;28;20302;-61
2022/03/16 11:39:22;;;;;;;12.30;11.10;;;19.80;99.90;;;;;;4967445;28;20691;-62
2022/03/16 11:41:54;;;;;;;12.05;10.85;;;19.80;99.90;;;;;;4980332;28;20646;-62
2022/03/16 11:44:28;;;;;;;10.98;9.98;;;20.30;99.90;;;;;;4980672;28;20256;-61
2022/03/16 11:47:22;;;;;;;11.35;10.13;;;20.20;99.90;;;;;;4981765;28;20229;-62
2022/03/16 11:50:13;;;;;;;12.38;9.90;;;19.40;99.90;;;;;;4996825;28;20209;-62
2022/03/16 11:53:03;;;;;;;11.85;10.63;;;19.70;99.90;;;;;;4979131;28;20220;-62
2022/03/16 11:55:50;;;;;;;10.23;9.23;;;19.50;99.90;;;;;;4969594;28;20201;-62
2022/03/16 11:58:25;;;;;;;10.77;9.68;;;19.60;99.90;;;;;;4979060;28;20217;-61
2022/03/16 12:01:27;;;;;;;12.82;10.25;;;19.20;99.90;;;;;;4997642;28;20201;-62
2022/03/16 12:04:15;;;;;;;9.48;8.48;;;18.30;99.90;;;;;;4995066;28;20252;-61
2022/03/16 12:06:53;;;;;;;13.13;10.55;;;18.00;99.90;;;;;;4979840;28;20199;-61
2022/03/16 12:09:37;;;;;;;14.48;9.63;;;18.10;99.90;;;;;;4984522;28;20278;-64
2022/03/16 12:15:21;;;;;;;11.95;9.27;;;19.20;99.90;;;;;;4978230;28;20657;-62
2022/03/16 12:17:56;;;;;;;12.40;10.10;;;19.20;99.90;;;;;;4979639;28;20193;-62
2022/03/16 12:20:23;;;;;;;11.82;10.32;;;18.40;99.90;;;;;;4979595;28;20566;-62
2022/03/16 12:22:52;;;;;;;11.02;9.60;;;18.10;99.90;;;;;;4997186;28;23463;-62
2022/03/16 12:25:29;;;;;;;9.73;8.73;;;17.70;99.90;;;;;;4995739;28;20190;-62
2022/03/16 12:30:52;;;;;;;9.13;8.02;;;17.60;99.90;;;;;;4980511;28;20185;-62
2022/03/16 12:33:25;;;;;;;11.52;9.00;;;18.20;99.90;;;;;;4978735;28;20669;-62
2022/03/16 12:36:00;;;;;;;12.38;8.27;;;18.20;99.90;;;;;;4996315;28;20728;-62
2022/03/16 12:38:29;;;;;;;11.07;8.80;;;18.00;99.90;;;;;;4978482;28;20240;-62
2022/03/16 12:43:47;;;;;;;9.90;8.48;;;17.50;99.90;;;;;;4978664;28;20550;-62
2022/03/16 12:46:27;;;;;;;10.48;8.73;;;17.20;99.90;;;;;;4980462;28;20800;-63
2022/03/16 12:49:03;;;;;;;10.32;9.07;;;17.30;99.90;;;;;;4983114;28;20887;-63
2022/03/16 12:51:48;;;;;;;9.88;8.88;;;16.70;99.90;;;;;;4993918;28;20633;-63
2022/03/16 12:54:24;;;;;;;9.32;7.28;;;17.10;99.90;;;;;;4979702;28;20214;-63
2022/03/16 12:56:55;;;;;;;8.95;7.47;;;16.80;99.90;;;;;;4997596;28;20209;-63
2022/03/16 12:59:31;;;;;;;10.70;7.72;;;16.70;99.90;;;;;;4981995;28;20304;-63
2022/03/16 13:02:03;;;;;;;9.30;8.27;;;16.40;99.90;;;;;;4981844;28;20889;-63
2022/03/16 13:04:33;;;;;;;8.80;7.60;;;16.30;99.90;;;;;;4985799;28;20202;-63
2022/03/16 13:07:00;;;;;;;10.20;7.72;;;16.50;99.90;;;;;;4979428;28;20212;-63
2022/03/16 13:09:33;;;;;;;8.90;7.70;;;16.60;99.90;;;;;;4977479;28;20194;-62
2022/03/16 13:12:08;;;;;;;10.02;7.75;;;16.50;99.90;;;;;;4977606;28;20214;-63
2022/03/16 13:14:38;;;;;;;9.98;7.47;;;16.60;99.90;;;;;;4981378;28;20291;-62
2022/03/16 13:17:08;;;;;;;9.20;7.57;;;16.70;99.90;;;;;;4980898;28;20224;-62